CheckWX is a tool to help pilots better visualize weather data.  It is not intended as a substitute for an official pre-flight weather briefing.

20:13:23 UTC

LLBG TAF
Ben Gurion International Airport
Tel Aviv, Israel
TAF LLBG 261703Z 2618/2718 32005KT CAVOK BECMG 2619/2621 VRB03KT 8000 FEW007 PROB40 2623/2705 16004KT 2000 BCFG BKN003 BECMG 2707/2709 27010KT CAVOK TX31/2712Z TN22/2703Z

Jun-26@
18:00 UTC

Jun-26 @ 18:00 UTC

Jun-26@
19:00 UTC

Jun-26 @ 19:00 UTC

TAF LLBG 261703Z 2618/2718 32005KT CAVOK

Expired

Wind
  • 320° at 5 KTS
Conditions
No significant weather
Cloud Levels
  • No significant clouds

Jun-26@
19:00 UTC

Jun-26 @ 19:00 UTC

Jun-27@
07:00 UTC

Jun-27 @ 07:00 UTC

BECMG 2619/2621 VRB03KT 8000 FEW007

Becoming

Becoming Conditions expected by Wed, Jun 26, 2019 @ 21:00 UTC

Wind
  • Variable at 3 KTS
Conditions
No significant weather
Cloud Levels
  • Few at 700' AGL

Jun-26@
23:00 UTC

Jun-26 @ 23:00 UTC

Jun-27@
05:00 UTC

Jun-27 @ 05:00 UTC

PROB40 2623/2705 16004KT 2000 BCFG BKN003

Probable - 40% Likelihood

Probable - 40% Likelihood during this time.

Wind
  • 160° at 4 KTS
Conditions
Patches of Fog
Cloud Levels
  • Broken at 300' AGL

Jun-27@
07:00 UTC

Jun-27 @ 07:00 UTC

Jun-27@
18:00 UTC

Jun-27 @ 18:00 UTC

BECMG 2707/2709 27010KT CAVOK TX31/2712Z TN22/2703Z

Becoming

Becoming Conditions expected by Thu, Jun 27, 2019 @ 09:00 UTC

Wind
  • 270° at 10 KTS
Conditions
No significant weather
Cloud Levels
  • No significant clouds